Lost Hills, California
Current Conditions -  °F | °C
As of 9:54 AM on Sunday 21 Dec 2014 (Local Time) from KBFL Reporting Station
Haze Haze  
Wind Chill: 54°   Ceiling: 300
Heat Index: 54°   Visibility: 2mi
Dew Point: 51°   Wind: 0mph
Humidity: 90%   Direction: NA
Pressure: 30.31"   Gusts: NA
Location:  35.62°N, 119.7°W
Report Text: KBFL 211754Z 00000KT 2SM BR BKN003 OVC008 12/11 A3031 RMK AO2 SLP261 T01220106 10122 20089 50009
Loading
Personal Weather Stations






























Interactive Weather Map New forecast layout! Learn more

10-Day Weather Forecast

Advertisements
Track Severe Weather on mobile